Nearby METAR Reports

 

KBUF - Buffalo/Cheektow, New York, USA
Distance from station: 0 0mi, 0km
Updated: 09/21/2021 12:54am
Mostly cloudy
Mostly cloudy
 Wind from S
Wind: S 16 mph , 26 km/h
Temperature: 72°F , 22°C
Dew Point: 61°F , 16°C
Humidity: 69%
Barometer: 30.14 inHg , 1020.7 hPa
Clouds: Mostly cloudy
Visibility: 10 miles , 16 km
Cloud details: Mostly cloudy 25000 ft
2021/09/21 04:54 KBUF 210454Z 18014KT 10SM BKN250 22/16 A3014 RMK AO2 SLP203 T02220156 402890139
KIAG - Niagara Falls, New York, USA
Distance from station: NW 16mi, 26km
Updated: 09/21/2021 12:53am
Clear
Clear
 Wind from SSW
Wind: SSW 14 mph , 22 km/h
Temperature: 73°F , 23°C
Dew Point: 61°F , 16°C
Humidity: 65%
Barometer: 30.13 inHg , 1020.3 hPa
Clouds: Clear
Visibility: 10 miles , 16 km
2021/09/21 04:53 KIAG 210453Z AUTO 20012KT 10SM CLR 23/16 A3013 RMK AO2 SLP197 T02280161 402830111
 
CWPC - Port Colborne(Au, Ontario, Canada
Distance from station: W 27mi, 43km
Updated: 09/21/2021 1:00am

 Wind from S
Wind: S 24 mph , 39 km/h
Temperature: 72°F , 22°C
Dew Point: 63°F , 17°C
Humidity: 73%
2021/09/21 05:00 CWPC 210500Z AUTO 18021KT 22/17 RMK AO1 PK WND 20027/0402 SLP204 T02210167 57002
CYSN - St. Catharines A, Ontario, Canada
Distance from station: NW 29mi, 46km
Updated: 09/20/2021 9:00pm
NOT Current
Mostly cloudy
Mostly cloudy
 Wind from SSW
Wind: SSW 2 mph , 4 km/h
Temperature: 68°F , 20°C
Dew Point: 64°F , 18°C
Humidity: 88%
Barometer: 30.09 inHg , 1019 hPa
Clouds: Mostly cloudy
Visibility: 15 miles , 24 km
Cloud details: Mostly cloudy 22000 ft
2021/09/21 01:00 CYSN 210100Z 21002KT 15SM BKN220 20/18 A3009 RMK CI6 LAST STFD OBS/NEXT 211100Z SLP192 DENSITY ALT 800FT
 
CWWZ - Port Weller (mar, Ontario, Canada
Distance from station: NW 33mi, 53km
Updated: 09/21/2021 1:00am

 Wind from S
Wind: S 18 mph , 30 km/h, Gust: 28 mph , 44 km/h
Temperature: 73°F , 23°C
Dew Point: 63°F , 17°C
Humidity: 69%
2021/09/21 05:00 CWWZ 210500Z AUTO 18016G24KT 23/17 RMK AO1 PK WND 18024/0413 SLP194 T02260169 55001
CXVN - Vineland (au8), Ontario, Canada
Distance from station: WNW 38mi, 61km
Updated: 09/21/2021 1:00am

 Wind from S
Wind: S 13 mph , 20 km/h, Gust: 23 mph , 37 km/h
Temperature: 73°F , 23°C
Dew Point: 63°F , 17°C
Humidity: 69%
2021/09/21 05:00 CXVN 210500Z AUTO 18011G20KT 23/17 RMK AO1 PK WND 17021/0447 SLP183 T02270169 56001
 
KDKK - Dunkirk, New York, USA
Distance from station: SW 41mi, 66km
Updated: 09/21/2021 12:53am
Mostly cloudy
Mostly cloudy
 Wind from S
Wind: S 21 mph , 33 km/h, Gust: 32 mph , 52 km/h
Temperature: 72°F , 22°C
Dew Point: 61°F , 16°C
Humidity: 69%
Barometer: 30.13 inHg , 1020.3 hPa
Clouds: Mostly cloudy
Visibility: 10 miles , 16 km
Cloud details: Mostly cloudy 10000 ft
2021/09/21 04:53 KDKK 210453Z AUTO 17018G28KT 10SM BKN100 22/16 A3013 RMK AO2 PK WND 16028/0453 SLP198 T02220156 402890111 $
KOLE - Olean, New York, USA
Distance from station: SSE 52mi, 83km
Updated: 09/21/2021 1:15am
Clear
Clear
 Wind from S
Wind: S 14 mph , 22 km/h, Gust: 20 mph , 31 km/h
Temperature: 59°F , 15°C
Dew Point: 55°F , 13°C
Humidity: 88%
Barometer: 30.25 inHg , 1024.4 hPa
Clouds: Clear
Visibility: 10 miles , 16 km
2021/09/21 05:15 KOLE 210515Z AUTO 19012G17KT 10SM CLR 15/13 A3025 RMK AO2
 
KROC - Rochester, New York, USA
Distance from station: ENE 55mi, 88km
Updated: 09/21/2021 12:54am
Mostly cloudy
Mostly cloudy
 Wind from SSW
Wind: SSW 13 mph , 20 km/h, Gust: 24 mph , 39 km/h
Temperature: 70°F , 21°C
Dew Point: 57°F , 14°C
Humidity: 64%
Barometer: 30.17 inHg , 1021.7 hPa
Clouds: Mostly cloudy
Visibility: 10 miles , 16 km
Cloud details: Partly cloudy 15000 ft
Partly cloudy 18000 ft
Mostly cloudy 25000 ft
2021/09/21 04:54 KROC 210454Z 20011G21KT 10SM SCT150 SCT180 BKN250 21/14 A3017 RMK AO2 SLP215 T02060144 402720089 $
KDSV - Dansville, New York, USA
Distance from station: ESE 57mi, 92km
Updated: 09/21/2021 12:54am
Clear
Clear
 Wind from SE
Wind: SE 10 mph , 17 km/h
Temperature: 66°F , 19°C
Dew Point: 57°F , 14°C
Humidity: 73%
Barometer: 30.21 inHg , 1023 hPa
Clouds: Clear
Visibility: 10 miles , 16 km
2021/09/21 04:54 KDSV 210454Z AUTO 14009KT 10SM CLR 19/14 A3021 RMK AO2 SLP236 T01890144 402670100
 
CWWB - Burlington Piers, Ontario, Canada
Distance from station: WNW 59mi, 94km
Updated: 09/21/2021 1:00am

 Wind from S
Wind: S 14 mph , 22 km/h
Temperature: 73°F , 23°C
Dew Point: 64°F , 18°C
Humidity: 74%
2021/09/21 05:00 CWWB 210500Z AUTO 17012KT 23/18 RMK AO1 PK WND 16018/0411 SLP188 T02270176 55005
CYTZ - Toronto Il Vor, Ontario, Canada
Distance from station: NW 59mi, 95km
Updated: 09/21/2021 1:00am
Overcast
Overcast
 Wind from S
Wind: S 3 mph , 6 km/h
Temperature: 70°F , 21°C
Dew Point: 66°F , 19°C
Humidity: 88%
Barometer: 30.09 inHg , 1019 hPa
Clouds: Overcast
Visibility: 9 miles , 14 km
Cloud details: Partly cloudy 6000 ft
Mostly cloudy 21000 ft
Overcast 25000 ft
2021/09/21 05:00 CYTZ 210500Z AUTO 18003KT 140V270 9SM SCT060 BKN210 OVC250 21/19 A3009 RMK SLP191 DENSITY ALT 900FT
 
CXTO - Toronto City, Ontario, Canada
Distance from station: NW 61mi, 98km
Updated: 09/21/2021 1:00am

 
Temperature: 72°F , 22°C
Dew Point: 64°F , 18°C
Humidity: 78%
2021/09/21 05:00 CXTO 210500Z AUTO 22/18 RMK AO1 SLP193 T02160181 55000
KJHW - Jamestown, New York, USA
Distance from station: SSW 62mi, 99km
Updated: 09/21/2021 12:56am
Clear
Clear
 Wind from S
Wind: S 12 mph , 19 km/h, Gust: 20 mph , 31 km/h
Temperature: 64°F , 18°C
Dew Point: 57°F , 14°C
Humidity: 78%
Barometer: 30.21 inHg , 1023 hPa
Clouds: Clear
Visibility: 10 miles , 16 km
2021/09/21 04:56 KJHW 210456Z AUTO 18010G17KT 10SM CLR 18/14 A3021 RMK AO2 SLP227 T01780144 402560117
 
CYHM - Hamilton Airport, Ontario, Canada
Distance from station: WNW 63mi, 101km
Updated: 09/21/2021 1:00am
Overcast
Overcast
 Wind from S
Wind: S 14 mph , 22 km/h, Gust: 21 mph , 33 km/h
Temperature: 70°F , 21°C
Dew Point: 63°F , 17°C
Humidity: 78%
Barometer: 30.10 inHg , 1019.3 hPa
Clouds: Overcast
Visibility: 15 miles , 24 km
Cloud details: Few Clouds 5500 ft
Partly cloudy 10000 ft
Overcast 21000 ft
2021/09/21 05:00 CYHM 210500Z 18012G18KT 15SM FEW055 SCT100 OVC210 21/17 A3010 RMK SC1AC3CS5 SC TR SLP193 DENSITY ALT 1500FT
CXHM - Hamilton Rbg Cs, Ontario, Canada
Distance from station: WNW 64mi, 102km
Updated: 09/21/2021 1:00am

 Wind from SW
Wind: SW 2 mph , 4 km/h
Temperature: 72°F , 22°C
Dew Point: 64°F , 18°C
Humidity: 78%
2021/09/21 05:00 CXHM 210500Z AUTO 23002KT 22/18 RMK AO1 SLP189 T02230175 55003
 
CYYZ - Toronto/Pearson, Ontario, Canada
Distance from station: NW 67mi, 108km
Updated: 09/21/2021 1:00am
Mostly cloudy
Mostly cloudy
 Wind from S
Wind: S 8 mph , 13 km/h
Temperature: 70°F , 21°C
Dew Point: 64°F , 18°C
Humidity: 83%
Barometer: 30.09 inHg , 1019 hPa
Clouds: Mostly cloudy
Visibility: 15 miles , 24 km
Cloud details: Mostly cloudy 19000 ft
2021/09/21 05:00 CYYZ 210500Z 17007KT 15SM BKN190 21/18 A3009 RMK AC7 SLP189 DENSITY ALT 1300FT
CYOO - Oshawa, Ontario, Canada
Distance from station: N 68mi, 110km
Updated: 09/21/2021 1:00am
Overcast
Overcast
 Wind from S
Wind: S 5 mph , 7 km/h
Temperature: 70°F , 21°C
Dew Point: 66°F , 19°C
Humidity: 88%
Barometer: 30.12 inHg , 1020 hPa
Clouds: Overcast
Visibility: 9 miles , 14 km
Cloud details: Partly cloudy 4600 ft
Mostly cloudy 21000 ft
Overcast 23000 ft
2021/09/21 05:00 CYOO 210500Z AUTO 17004KT 140V200 9SM SCT046 BKN210 OVC230 21/19 A3012 RMK SLP199 DENSITY ALT 1100FT
 
KELZ - Wellsville, New York, USA
Distance from station: SE 69mi, 111km
Updated: 09/21/2021 12:56am
Clear
Clear
 Wind from S
Wind: S 12 mph , 19 km/h
Temperature: 61°F , 16°C
Dew Point: 55°F , 13°C
Humidity: 83%
Barometer: 30.27 inHg , 1025.1 hPa
Clouds: Clear
Visibility: 10 miles , 16 km
2021/09/21 04:56 KELZ 210456Z AUTO 19010KT 150V210 10SM CLR 16/13 A3027 RMK AO2 SLP242 T01610128 402330094 $
CWNC - Cobourg (mars), Ontario, Canada
Distance from station: NNE 76mi, 122km
Updated: 09/21/2021 1:00am

 Wind from SSE
Wind: SSE 2 mph , 4 km/h
Temperature: 70°F , 21°C
Dew Point: 64°F , 18°C
Humidity: 83%
2021/09/21 05:00 CWNC 210500Z AUTO 15002KT 21/18 RMK AO1 SLP202 T02110175 53001